sensor_id;sensor_type;location;lat;lon;timestamp;temperature;humidity
54680;DHT22;40578;53.178;5.846;2022-11-20T00:01:19;-0.70;99.90
54680;DHT22;40578;53.178;5.846;2022-11-20T00:03:45;-0.80;99.90
54680;DHT22;40578;53.178;5.846;2022-11-20T00:06:14;-0.70;99.90
54680;DHT22;40578;53.178;5.846;2022-11-20T00:08:40;-0.70;99.90
54680;DHT22;40578;53.178;5.846;2022-11-20T00:11:08;-0.50;99.90
54680;DHT22;40578;53.178;5.846;2022-11-20T00:13:34;-0.50;99.90
54680;DHT22;40578;53.178;5.846;2022-11-20T00:16:02;-0.60;99.90
54680;DHT22;40578;53.178;5.846;2022-11-20T00:18:28;-0.70;99.90
54680;DHT22;40578;53.178;5.846;2022-11-20T00:21:03;-0.60;99.90
54680;DHT22;40578;53.178;5.846;2022-11-20T00:23:29;-0.60;99.90
54680;DHT22;40578;53.178;5.846;2022-11-20T00:25:54;-0.60;99.90
54680;DHT22;40578;53.178;5.846;2022-11-20T00:28:20;-0.80;99.90
54680;DHT22;40578;53.178;5.846;2022-11-20T00:30:45;-0.80;99.90
54680;DHT22;40578;53.178;5.846;2022-11-20T00:33:11;-0.70;99.90
54680;DHT22;40578;53.178;5.846;2022-11-20T00:35:37;-0.60;99.90
54680;DHT22;40578;53.178;5.846;2022-11-20T00:38:02;-0.70;99.90
54680;DHT22;40578;53.178;5.846;2022-11-20T00:40:28;-0.90;99.90
54680;DHT22;40578;53.178;5.846;2022-11-20T00:42:53;-0.70;99.90
54680;DHT22;40578;53.178;5.846;2022-11-20T00:45:19;-0.80;99.90
54680;DHT22;40578;53.178;5.846;2022-11-20T00:47:44;-0.90;99.90
54680;DHT22;40578;53.178;5.846;2022-11-20T00:50:10;-0.70;99.90
54680;DHT22;40578;53.178;5.846;2022-11-20T00:52:36;-0.80;99.90
54680;DHT22;40578;53.178;5.846;2022-11-20T00:55:01;-0.80;99.90
54680;DHT22;40578;53.178;5.846;2022-11-20T00:57:27;-0.80;99.90
54680;DHT22;40578;53.178;5.846;2022-11-20T00:59:53;-0.70;99.90
54680;DHT22;40578;53.178;5.846;2022-11-20T01:02:18;-0.80;99.90
54680;DHT22;40578;53.178;5.846;2022-11-20T01:04:44;-0.80;99.90
54680;DHT22;40578;53.178;5.846;2022-11-20T01:07:10;-0.70;99.90
54680;DHT22;40578;53.178;5.846;2022-11-20T01:09:35;-0.80;99.90
54680;DHT22;40578;53.178;5.846;2022-11-20T01:12:01;-0.80;99.90
54680;DHT22;40578;53.178;5.846;2022-11-20T01:14:26;-0.80;99.90
54680;DHT22;40578;53.178;5.846;2022-11-20T01:16:52;-0.80;99.90
54680;DHT22;40578;53.178;5.846;2022-11-20T01:19:20;-0.70;99.90
54680;DHT22;40578;53.178;5.846;2022-11-20T01:21:49;-0.80;99.90
54680;DHT22;40578;53.178;5.846;2022-11-20T01:24:16;-0.70;99.90
54680;DHT22;40578;53.178;5.846;2022-11-20T01:26:44;-0.80;99.90
54680;DHT22;40578;53.178;5.846;2022-11-20T01:29:16;-0.60;99.90
54680;DHT22;40578;53.178;5.846;2022-11-20T01:31:43;-0.70;99.90
54680;DHT22;40578;53.178;5.846;2022-11-20T01:34:17;-0.60;99.90
54680;DHT22;40578;53.178;5.846;2022-11-20T01:36:43;-0.80;99.90
54680;DHT22;40578;53.178;5.846;2022-11-20T01:39:13;-0.70;99.90
54680;DHT22;40578;53.178;5.846;2022-11-20T01:41:40;-0.80;99.90
54680;DHT22;40578;53.178;5.846;2022-11-20T01:44:59;-0.70;99.90
54680;DHT22;40578;53.178;5.846;2022-11-20T01:47:41;-0.70;99.90
54680;DHT22;40578;53.178;5.846;2022-11-20T01:50:12;-0.70;99.90
54680;DHT22;40578;53.178;5.846;2022-11-20T01:52:44;-0.90;99.90
54680;DHT22;40578;53.178;5.846;2022-11-20T01:55:19;-0.80;99.90
54680;DHT22;40578;53.178;5.846;2022-11-20T01:57:46;-0.90;99.90
54680;DHT22;40578;53.178;5.846;2022-11-20T02:00:14;-0.80;99.90
54680;DHT22;40578;53.178;5.846;2022-11-20T02:02:47;-0.90;99.90
54680;DHT22;40578;53.178;5.846;2022-11-20T02:07:49;-0.90;99.90
54680;DHT22;40578;53.178;5.846;2022-11-20T02:10:16;-0.90;99.90
54680;DHT22;40578;53.178;5.846;2022-11-20T02:12:41;-0.30;99.90
54680;DHT22;40578;53.178;5.846;2022-11-20T02:15:26;-0.80;99.90
54680;DHT22;40578;53.178;5.846;2022-11-20T02:17:51;-0.90;99.90
54680;DHT22;40578;53.178;5.846;2022-11-20T02:20:17;-0.90;99.90
54680;DHT22;40578;53.178;5.846;2022-11-20T02:23:02;-1.00;99.90
54680;DHT22;40578;53.178;5.846;2022-11-20T02:25:30;-0.80;99.90
54680;DHT22;40578;53.178;5.846;2022-11-20T02:27:57;-1.00;99.90
54680;DHT22;40578;53.178;5.846;2022-11-20T02:30:23;-0.70;99.90
54680;DHT22;40578;53.178;5.846;2022-11-20T02:32:49;-0.90;99.90
54680;DHT22;40578;53.178;5.846;2022-11-20T02:37:43;-0.70;99.90
54680;DHT22;40578;53.178;5.846;2022-11-20T02:40:10;-0.90;99.90
54680;DHT22;40578;53.178;5.846;2022-11-20T02:42:36;-0.90;99.90
54680;DHT22;40578;53.178;5.846;2022-11-20T02:45:03;-0.70;99.90
54680;DHT22;40578;53.178;5.846;2022-11-20T02:47:31;-0.40;99.90
54680;DHT22;40578;53.178;5.846;2022-11-20T02:49:57;-0.50;99.90
54680;DHT22;40578;53.178;5.846;2022-11-20T02:52:23;-0.70;99.90
54680;DHT22;40578;53.178;5.846;2022-11-20T02:54:49;-0.90;99.90
54680;DHT22;40578;53.178;5.846;2022-11-20T02:57:14;-0.70;99.90
54680;DHT22;40578;53.178;5.846;2022-11-20T02:59:40;-0.80;99.90
54680;DHT22;40578;53.178;5.846;2022-11-20T03:02:06;-0.80;99.90
54680;DHT22;40578;53.178;5.846;2022-11-20T03:04:31;-0.80;99.90
54680;DHT22;40578;53.178;5.846;2022-11-20T03:06:57;-0.70;99.90
54680;DHT22;40578;53.178;5.846;2022-11-20T03:09:22;-0.80;99.90
54680;DHT22;40578;53.178;5.846;2022-11-20T03:11:48;-0.80;99.90
54680;DHT22;40578;53.178;5.846;2022-11-20T03:14:14;-0.80;99.90
54680;DHT22;40578;53.178;5.846;2022-11-20T03:16:39;-0.70;99.90
54680;DHT22;40578;53.178;5.846;2022-11-20T03:19:05;-0.50;99.90
54680;DHT22;40578;53.178;5.846;2022-11-20T03:21:33;-0.70;99.90
54680;DHT22;40578;53.178;5.846;2022-11-20T03:23:59;-0.70;99.90
54680;DHT22;40578;53.178;5.846;2022-11-20T03:26:25;-0.50;99.90
54680;DHT22;40578;53.178;5.846;2022-11-20T03:28:57;-0.50;99.90
54680;DHT22;40578;53.178;5.846;2022-11-20T03:31:27;-0.50;99.90
54680;DHT22;40578;53.178;5.846;2022-11-20T03:33:55;-0.50;99.90
54680;DHT22;40578;53.178;5.846;2022-11-20T03:36:21;-0.20;99.90
54680;DHT22;40578;53.178;5.846;2022-11-20T03:38:47;-0.60;99.90
54680;DHT22;40578;53.178;5.846;2022-11-20T03:41:19;-0.60;99.90
54680;DHT22;40578;53.178;5.846;2022-11-20T03:43:52;-0.60;99.90
54680;DHT22;40578;53.178;5.846;2022-11-20T03:46:19;-0.80;99.90
54680;DHT22;40578;53.178;5.846;2022-11-20T03:48:45;-0.90;99.90
54680;DHT22;40578;53.178;5.846;2022-11-20T03:51:22;-0.70;99.90
54680;DHT22;40578;53.178;5.846;2022-11-20T03:53:51;-0.90;99.90
54680;DHT22;40578;53.178;5.846;2022-11-20T03:56:18;-1.00;99.90
54680;DHT22;40578;53.178;5.846;2022-11-20T03:58:44;-1.10;99.90
54680;DHT22;40578;53.178;5.846;2022-11-20T04:01:14;-1.00;99.90
54680;DHT22;40578;53.178;5.846;2022-11-20T04:03:41;-1.20;99.90
54680;DHT22;40578;53.178;5.846;2022-11-20T04:06:12;-1.30;99.90
54680;DHT22;40578;53.178;5.846;2022-11-20T04:08:38;-1.10;99.90
54680;DHT22;40578;53.178;5.846;2022-11-20T04:11:18;-1.20;99.90
54680;DHT22;40578;53.178;5.846;2022-11-20T04:13:50;-1.40;99.90
54680;DHT22;40578;53.178;5.846;2022-11-20T04:16:16;-1.20;99.90
54680;DHT22;40578;53.178;5.846;2022-11-20T04:18:43;-1.10;99.90
54680;DHT22;40578;53.178;5.846;2022-11-20T04:21:09;-1.20;99.90
54680;DHT22;40578;53.178;5.846;2022-11-20T04:23:35;-1.20;99.90
54680;DHT22;40578;53.178;5.846;2022-11-20T04:26:04;-1.30;99.90
54680;DHT22;40578;53.178;5.846;2022-11-20T04:28:30;-1.30;99.90
54680;DHT22;40578;53.178;5.846;2022-11-20T04:31:14;-1.50;99.90
54680;DHT22;40578;53.178;5.846;2022-11-20T04:33:41;-1.60;99.90
54680;DHT22;40578;53.178;5.846;2022-11-20T04:36:11;-1.60;99.90
54680;DHT22;40578;53.178;5.846;2022-11-20T04:38:38;-1.70;99.90
54680;DHT22;40578;53.178;5.846;2022-11-20T04:41:06;-1.70;99.90
54680;DHT22;40578;53.178;5.846;2022-11-20T04:43:32;-1.70;99.90
54680;DHT22;40578;53.178;5.846;2022-11-20T04:46:01;-0.80;99.90
54680;DHT22;40578;53.178;5.846;2022-11-20T04:48:28;-1.80;99.90
54680;DHT22;40578;53.178;5.846;2022-11-20T04:50:54;-1.80;99.90
54680;DHT22;40578;53.178;5.846;2022-11-20T04:53:21;-1.90;99.90
54680;DHT22;40578;53.178;5.846;2022-11-20T04:55:47;-1.90;99.90
54680;DHT22;40578;53.178;5.846;2022-11-20T04:58:13;-2.00;99.90
54680;DHT22;40578;53.178;5.846;2022-11-20T05:00:39;-1.90;99.90
54680;DHT22;40578;53.178;5.846;2022-11-20T05:03:04;-2.00;99.90
54680;DHT22;40578;53.178;5.846;2022-11-20T05:05:30;-1.90;99.90
54680;DHT22;40578;53.178;5.846;2022-11-20T05:07:59;-2.20;99.90
54680;DHT22;40578;53.178;5.846;2022-11-20T05:10:25;-2.10;99.90
54680;DHT22;40578;53.178;5.846;2022-11-20T05:12:51;-1.80;99.90
54680;DHT22;40578;53.178;5.846;2022-11-20T05:15:17;-1.60;99.90
54680;DHT22;40578;53.178;5.846;2022-11-20T05:17:47;-2.40;99.90
54680;DHT22;40578;53.178;5.846;2022-11-20T05:20:13;-1.80;99.90
54680;DHT22;40578;53.178;5.846;2022-11-20T05:22:38;-1.70;99.90
54680;DHT22;40578;53.178;5.846;2022-11-20T05:25:04;-1.40;99.90
54680;DHT22;40578;53.178;5.846;2022-11-20T05:27:30;-1.40;99.90
54680;DHT22;40578;53.178;5.846;2022-11-20T05:29:56;-1.40;99.90
54680;DHT22;40578;53.178;5.846;2022-11-20T05:32:21;-1.40;99.90
54680;DHT22;40578;53.178;5.846;2022-11-20T05:34:53;-1.50;99.90
54680;DHT22;40578;53.178;5.846;2022-11-20T05:37:19;-1.50;99.90
54680;DHT22;40578;53.178;5.846;2022-11-20T05:39:44;-1.50;99.90
54680;DHT22;40578;53.178;5.846;2022-11-20T05:42:10;-1.60;99.90
54680;DHT22;40578;53.178;5.846;2022-11-20T05:44:54;-1.70;99.90
54680;DHT22;40578;53.178;5.846;2022-11-20T05:47:20;-1.80;99.90
54680;DHT22;40578;53.178;5.846;2022-11-20T05:49:45;-2.10;99.90
54680;DHT22;40578;53.178;5.846;2022-11-20T05:52:11;-2.00;99.90
54680;DHT22;40578;53.178;5.846;2022-11-20T05:54:36;-2.00;99.90
54680;DHT22;40578;53.178;5.846;2022-11-20T05:57:02;-2.00;99.90
54680;DHT22;40578;53.178;5.846;2022-11-20T05:59:28;-2.00;99.90
54680;DHT22;40578;53.178;5.846;2022-11-20T06:01:53;-2.00;99.90
54680;DHT22;40578;53.178;5.846;2022-11-20T06:04:19;-1.90;99.90
54680;DHT22;40578;53.178;5.846;2022-11-20T06:06:44;-2.10;99.90
54680;DHT22;40578;53.178;5.846;2022-11-20T06:09:10;-2.00;99.90
54680;DHT22;40578;53.178;5.846;2022-11-20T06:11:36;-2.10;99.90
54680;DHT22;40578;53.178;5.846;2022-11-20T06:14:01;-2.10;99.90
54680;DHT22;40578;53.178;5.846;2022-11-20T06:16:27;-2.00;99.90
54680;DHT22;40578;53.178;5.846;2022-11-20T06:18:52;-2.10;99.90
54680;DHT22;40578;53.178;5.846;2022-11-20T06:21:20;-2.00;99.90
54680;DHT22;40578;53.178;5.846;2022-11-20T06:23:46;-2.00;99.90
54680;DHT22;40578;53.178;5.846;2022-11-20T06:26:20;-2.00;99.90
54680;DHT22;40578;53.178;5.846;2022-11-20T06:28:45;-2.10;99.90
54680;DHT22;40578;53.178;5.846;2022-11-20T06:31:14;-2.10;99.90
54680;DHT22;40578;53.178;5.846;2022-11-20T06:33:41;-2.00;99.90
54680;DHT22;40578;53.178;5.846;2022-11-20T06:36:08;-1.90;99.90
54680;DHT22;40578;53.178;5.846;2022-11-20T06:38:34;-2.00;99.90
54680;DHT22;40578;53.178;5.846;2022-11-20T06:41:00;-2.10;99.90
54680;DHT22;40578;53.178;5.846;2022-11-20T06:43:28;-2.00;99.90
54680;DHT22;40578;53.178;5.846;2022-11-20T06:45:58;-2.10;99.90
54680;DHT22;40578;53.178;5.846;2022-11-20T06:48:26;-2.00;99.90
54680;DHT22;40578;53.178;5.846;2022-11-20T06:50:51;-2.00;99.90
54680;DHT22;40578;53.178;5.846;2022-11-20T06:53:17;-2.10;99.90
54680;DHT22;40578;53.178;5.846;2022-11-20T06:55:46;-2.20;99.90
54680;DHT22;40578;53.178;5.846;2022-11-20T06:58:14;-2.20;99.90
54680;DHT22;40578;53.178;5.846;2022-11-20T07:00:40;-2.20;99.90
54680;DHT22;40578;53.178;5.846;2022-11-20T07:03:08;-2.00;99.90
54680;DHT22;40578;53.178;5.846;2022-11-20T07:05:34;-2.20;99.90
54680;DHT22;40578;53.178;5.846;2022-11-20T07:08:01;-2.20;99.90
54680;DHT22;40578;53.178;5.846;2022-11-20T07:10:26;-2.00;99.90
54680;DHT22;40578;53.178;5.846;2022-11-20T07:12:53;-2.10;99.90
54680;DHT22;40578;53.178;5.846;2022-11-20T07:15:21;-2.00;99.90
54680;DHT22;40578;53.178;5.846;2022-11-20T07:17:47;-1.90;99.90
54680;DHT22;40578;53.178;5.846;2022-11-20T07:20:13;-2.00;99.90
54680;DHT22;40578;53.178;5.846;2022-11-20T07:22:39;-1.60;99.90
54680;DHT22;40578;53.178;5.846;2022-11-20T07:25:05;-3.00;99.90
54680;DHT22;40578;53.178;5.846;2022-11-20T07:27:31;-1.90;99.90
54680;DHT22;40578;53.178;5.846;2022-11-20T07:29:57;-1.60;99.90
54680;DHT22;40578;53.178;5.846;2022-11-20T07:32:23;0.10;99.90
54680;DHT22;40578;53.178;5.846;2022-11-20T07:34:48;-1.50;99.90
54680;DHT22;40578;53.178;5.846;2022-11-20T07:37:15;-1.70;99.90
54680;DHT22;40578;53.178;5.846;2022-11-20T07:39:41;-1.60;99.90
54680;DHT22;40578;53.178;5.846;2022-11-20T07:42:07;-1.50;99.90
54680;DHT22;40578;53.178;5.846;2022-11-20T07:44:33;-1.70;99.90
54680;DHT22;40578;53.178;5.846;2022-11-20T07:46:59;-1.60;99.90
54680;DHT22;40578;53.178;5.846;2022-11-20T07:49:25;-1.60;99.90
54680;DHT22;40578;53.178;5.846;2022-11-20T07:51:51;-1.70;99.90
54680;DHT22;40578;53.178;5.846;2022-11-20T07:54:19;-1.60;99.90
54680;DHT22;40578;53.178;5.846;2022-11-20T07:56:45;-1.70;99.90
54680;DHT22;40578;53.178;5.846;2022-11-20T07:59:10;-1.70;99.90
54680;DHT22;40578;53.178;5.846;2022-11-20T08:01:37;-1.70;99.90
54680;DHT22;40578;53.178;5.846;2022-11-20T08:04:03;-1.60;99.90
54680;DHT22;40578;53.178;5.846;2022-11-20T08:06:29;-1.60;99.90
54680;DHT22;40578;53.178;5.846;2022-11-20T08:08:54;-1.80;99.90
54680;DHT22;40578;53.178;5.846;2022-11-20T08:11:20;-1.70;99.90
54680;DHT22;40578;53.178;5.846;2022-11-20T08:14:04;-1.60;99.90
54680;DHT22;40578;53.178;5.846;2022-11-20T08:16:40;-1.70;99.90
54680;DHT22;40578;53.178;5.846;2022-11-20T08:19:06;-1.60;99.90
54680;DHT22;40578;53.178;5.846;2022-11-20T08:21:32;-1.60;99.90
54680;DHT22;40578;53.178;5.846;2022-11-20T08:24:01;-1.60;99.90
54680;DHT22;40578;53.178;5.846;2022-11-20T08:26:27;-1.50;99.90
54680;DHT22;40578;53.178;5.846;2022-11-20T08:28:54;-1.50;99.90
54680;DHT22;40578;53.178;5.846;2022-11-20T08:31:20;-1.30;99.90
54680;DHT22;40578;53.178;5.846;2022-11-20T08:33:46;-1.70;99.90
54680;DHT22;40578;53.178;5.846;2022-11-20T08:36:12;-1.20;99.90
54680;DHT22;40578;53.178;5.846;2022-11-20T08:38:39;-1.30;99.90
54680;DHT22;40578;53.178;5.846;2022-11-20T08:41:05;-1.00;99.90
54680;DHT22;40578;53.178;5.846;2022-11-20T08:43:49;-1.20;99.90
54680;DHT22;40578;53.178;5.846;2022-11-20T08:46:16;-1.20;99.90
54680;DHT22;40578;53.178;5.846;2022-11-20T08:48:42;-1.10;99.90
54680;DHT22;40578;53.178;5.846;2022-11-20T08:51:08;-1.00;99.90
54680;DHT22;40578;53.178;5.846;2022-11-20T08:53:33;-0.90;99.90
54680;DHT22;40578;53.178;5.846;2022-11-20T08:55:59;-1.10;99.90
54680;DHT22;40578;53.178;5.846;2022-11-20T08:58:25;-1.00;99.90
54680;DHT22;40578;53.178;5.846;2022-11-20T09:00:52;-1.00;99.90
54680;DHT22;40578;53.178;5.846;2022-11-20T09:03:18;-0.90;99.90
54680;DHT22;40578;53.178;5.846;2022-11-20T09:05:44;-0.90;99.90
54680;DHT22;40578;53.178;5.846;2022-11-20T09:08:09;-0.80;99.90
54680;DHT22;40578;53.178;5.846;2022-11-20T09:10:35;-0.70;99.90
54680;DHT22;40578;53.178;5.846;2022-11-20T09:13:02;-0.70;99.90
54680;DHT22;40578;53.178;5.846;2022-11-20T09:15:27;-0.70;99.90
54680;DHT22;40578;53.178;5.846;2022-11-20T09:17:58;-0.50;99.90
54680;DHT22;40578;53.178;5.846;2022-11-20T09:20:25;-0.50;99.90
54680;DHT22;40578;53.178;5.846;2022-11-20T09:22:50;-0.30;99.90
54680;DHT22;40578;53.178;5.846;2022-11-20T09:25:19;-0.30;99.90
54680;DHT22;40578;53.178;5.846;2022-11-20T09:27:44;-0.30;99.90
54680;DHT22;40578;53.178;5.846;2022-11-20T09:30:12;-0.20;99.90
54680;DHT22;40578;53.178;5.846;2022-11-20T09:32:39;-0.20;99.90
54680;DHT22;40578;53.178;5.846;2022-11-20T09:35:05;-0.20;99.90
54680;DHT22;40578;53.178;5.846;2022-11-20T09:37:31;0.00;99.90
54680;DHT22;40578;53.178;5.846;2022-11-20T09:39:57;0.10;99.90
54680;DHT22;40578;53.178;5.846;2022-11-20T09:42:37;0.10;99.90
54680;DHT22;40578;53.178;5.846;2022-11-20T09:47:53;0.30;99.90
54680;DHT22;40578;53.178;5.846;2022-11-20T09:50:32;0.30;99.90
54680;DHT22;40578;53.178;5.846;2022-11-20T09:53:30;0.40;99.90
54680;DHT22;40578;53.178;5.846;2022-11-20T09:56:01;0.50;99.90
54680;DHT22;40578;53.178;5.846;2022-11-20T09:58:33;0.50;99.90
54680;DHT22;40578;53.178;5.846;2022-11-20T10:01:19;0.60;99.90
54680;DHT22;40578;53.178;5.846;2022-11-20T10:09:36;0.70;99.90
54680;DHT22;40578;53.178;5.846;2022-11-20T10:15:06;0.80;99.90
54680;DHT22;40578;53.178;5.846;2022-11-20T10:21:04;1.00;99.90
54680;DHT22;40578;53.178;5.846;2022-11-20T10:31:40;1.20;99.90
54680;DHT22;40578;53.178;5.846;2022-11-20T10:34:15;1.30;99.90
54680;DHT22;40578;53.178;5.846;2022-11-20T10:36:58;1.40;99.90
54680;DHT22;40578;53.178;5.846;2022-11-20T10:42:10;1.40;99.90
54680;DHT22;40578;53.178;5.846;2022-11-20T10:44:36;1.50;94.20
54680;DHT22;40578;53.178;5.846;2022-11-20T10:47:24;1.60;99.90
54680;DHT22;40578;53.178;5.846;2022-11-20T10:49:55;1.80;99.90
54680;DHT22;40578;53.178;5.846;2022-11-20T10:53:02;1.90;99.90
54680;DHT22;40578;53.178;5.846;2022-11-20T10:55:53;1.90;99.90
54680;DHT22;40578;53.178;5.846;2022-11-20T11:00:46;1.90;70.30
54680;DHT22;40578;53.178;5.846;2022-11-20T11:03:27;2.00;40.50
54680;DHT22;40578;53.178;5.846;2022-11-20T11:08:28;2.00;99.90
54680;DHT22;40578;53.178;5.846;2022-11-20T11:10:59;2.00;99.90
54680;DHT22;40578;53.178;5.846;2022-11-20T11:13:29;2.00;1.60
54680;DHT22;40578;53.178;5.846;2022-11-20T11:15:55;2.00;1.00
54680;DHT22;40578;53.178;5.846;2022-11-20T11:18:29;2.00;99.90
54680;DHT22;40578;53.178;5.846;2022-11-20T11:20:57;2.00;20.40
54680;DHT22;40578;53.178;5.846;2022-11-20T11:23:34;2.10;99.90
54680;DHT22;40578;53.178;5.846;2022-11-20T11:26:01;2.10;33.70
54680;DHT22;40578;53.178;5.846;2022-11-20T11:28:27;2.10;99.90
54680;DHT22;40578;53.178;5.846;2022-11-20T11:30:54;2.10;99.90
54680;DHT22;40578;53.178;5.846;2022-11-20T11:33:25;2.10;99.90
54680;DHT22;40578;53.178;5.846;2022-11-20T11:35:55;2.20;99.90
54680;DHT22;40578;53.178;5.846;2022-11-20T11:38:36;2.20;99.90
54680;DHT22;40578;53.178;5.846;2022-11-20T11:41:05;2.30;99.90
54680;DHT22;40578;53.178;5.846;2022-11-20T11:43:36;2.30;99.90
54680;DHT22;40578;53.178;5.846;2022-11-20T11:46:32;2.40;99.90
54680;DHT22;40578;53.178;5.846;2022-11-20T11:54:38;2.90;99.90
54680;DHT22;40578;53.178;5.846;2022-11-20T11:57:23;3.00;95.00
54680;DHT22;40578;53.178;5.846;2022-11-20T12:00:06;2.90;1.00
54680;DHT22;40578;53.178;5.846;2022-11-20T12:02:47;2.70;52.50
54680;DHT22;40578;53.178;5.846;2022-11-20T12:05:30;2.70;91.00
54680;DHT22;40578;53.178;5.846;2022-11-20T12:11:20;2.60;99.90
54680;DHT22;40578;53.178;5.846;2022-11-20T12:16:34;2.60;99.90
54680;DHT22;40578;53.178;5.846;2022-11-20T12:19:00;2.60;99.90
54680;DHT22;40578;53.178;5.846;2022-11-20T12:21:42;2.50;99.90
54680;DHT22;40578;53.178;5.846;2022-11-20T12:24:52;2.50;99.90
54680;DHT22;40578;53.178;5.846;2022-11-20T12:30:15;2.40;80.00
54680;DHT22;40578;53.178;5.846;2022-11-20T12:47:26;2.20;90.80
54680;DHT22;40578;53.178;5.846;2022-11-20T12:52:56;2.30;99.90
54680;DHT22;40578;53.178;5.846;2022-11-20T12:58:33;2.30;99.90
54680;DHT22;40578;53.178;5.846;2022-11-20T13:01:25;2.30;99.90
54680;DHT22;40578;53.178;5.846;2022-11-20T13:04:24;2.30;99.90
54680;DHT22;40578;53.178;5.846;2022-11-20T13:06:54;2.30;98.40
54680;DHT22;40578;53.178;5.846;2022-11-20T13:09:20;2.30;99.90
54680;DHT22;40578;53.178;5.846;2022-11-20T13:14:30;2.30;75.00
54680;DHT22;40578;53.178;5.846;2022-11-20T13:17:38;2.40;99.90
54680;DHT22;40578;53.178;5.846;2022-11-20T13:20:04;2.40;99.90
54680;DHT22;40578;53.178;5.846;2022-11-20T13:22:51;2.40;99.90
54680;DHT22;40578;53.178;5.846;2022-11-20T13:25:24;2.30;74.10
54680;DHT22;40578;53.178;5.846;2022-11-20T13:27:50;2.40;45.50
54680;DHT22;40578;53.178;5.846;2022-11-20T13:30:21;3.00;97.80
54680;DHT22;40578;53.178;5.846;2022-11-20T13:32:58;2.40;99.90
54680;DHT22;40578;53.178;5.846;2022-11-20T13:35:32;2.40;99.90
54680;DHT22;40578;53.178;5.846;2022-11-20T13:40:37;2.30;99.90
54680;DHT22;40578;53.178;5.846;2022-11-20T13:43:22;2.30;99.90
54680;DHT22;40578;53.178;5.846;2022-11-20T13:46:04;2.30;99.90
54680;DHT22;40578;53.178;5.846;2022-11-20T13:48:33;2.30;99.90
54680;DHT22;40578;53.178;5.846;2022-11-20T13:56:47;2.30;99.90
54680;DHT22;40578;53.178;5.846;2022-11-20T14:02:16;2.20;99.90
54680;DHT22;40578;53.178;5.846;2022-11-20T14:04:48;2.20;99.90
54680;DHT22;40578;53.178;5.846;2022-11-20T14:07:16;2.20;99.90
54680;DHT22;40578;53.178;5.846;2022-11-20T14:09:51;2.20;1.00
54680;DHT22;40578;53.178;5.846;2022-11-20T14:12:20;2.20;1.00
54680;DHT22;40578;53.178;5.846;2022-11-20T14:14:53;2.20;1.00
54680;DHT22;40578;53.178;5.846;2022-11-20T14:17:29;2.20;1.00
54680;DHT22;40578;53.178;5.846;2022-11-20T14:19:58;2.30;1.00
54680;DHT22;40578;53.178;5.846;2022-11-20T14:22:26;2.20;99.90
54680;DHT22;40578;53.178;5.846;2022-11-20T14:25:20;2.20;99.90
54680;DHT22;40578;53.178;5.846;2022-11-20T14:27:54;2.20;1.00
54680;DHT22;40578;53.178;5.846;2022-11-20T14:30:25;2.20;1.00
54680;DHT22;40578;53.178;5.846;2022-11-20T14:32:54;2.30;99.90
54680;DHT22;40578;53.178;5.846;2022-11-20T14:37:50;2.20;99.90
54680;DHT22;40578;53.178;5.846;2022-11-20T14:40:26;2.20;99.90
54680;DHT22;40578;53.178;5.846;2022-11-20T14:42:53;2.20;99.90
54680;DHT22;40578;53.178;5.846;2022-11-20T14:45:19;2.20;1.00
54680;DHT22;40578;53.178;5.846;2022-11-20T14:47:45;2.20;1.00
54680;DHT22;40578;53.178;5.846;2022-11-20T14:50:16;2.20;1.00
54680;DHT22;40578;53.178;5.846;2022-11-20T14:53:00;2.20;1.00
54680;DHT22;40578;53.178;5.846;2022-11-20T14:55:26;2.20;1.00
54680;DHT22;40578;53.178;5.846;2022-11-20T15:00:40;2.20;1.00
54680;DHT22;40578;53.178;5.846;2022-11-20T15:03:15;2.70;1.00
54680;DHT22;40578;53.178;5.846;2022-11-20T15:05:50;2.20;1.00
54680;DHT22;40578;53.178;5.846;2022-11-20T15:08:16;2.20;99.90
54680;DHT22;40578;53.178;5.846;2022-11-20T15:10:46;2.20;99.90
54680;DHT22;40578;53.178;5.846;2022-11-20T15:13:24;2.20;99.90
54680;DHT22;40578;53.178;5.846;2022-11-20T15:15:53;2.30;99.90
54680;DHT22;40578;53.178;5.846;2022-11-20T15:18:29;2.30;99.90
54680;DHT22;40578;53.178;5.846;2022-11-20T15:21:02;2.30;99.90
54680;DHT22;40578;53.178;5.846;2022-11-20T15:23:29;2.20;99.90
54680;DHT22;40578;53.178;5.846;2022-11-20T15:25:55;2.30;99.90
54680;DHT22;40578;53.178;5.846;2022-11-20T15:28:35;2.30;99.90
54680;DHT22;40578;53.178;5.846;2022-11-20T15:31:01;2.30;99.90
54680;DHT22;40578;53.178;5.846;2022-11-20T15:33:28;2.30;99.90
54680;DHT22;40578;53.178;5.846;2022-11-20T15:35:54;2.30;99.90
54680;DHT22;40578;53.178;5.846;2022-11-20T15:38:20;2.20;99.90
54680;DHT22;40578;53.178;5.846;2022-11-20T15:40:45;2.20;99.90
54680;DHT22;40578;53.178;5.846;2022-11-20T15:43:11;2.20;99.90
54680;DHT22;40578;53.178;5.846;2022-11-20T15:45:53;2.20;99.90
54680;DHT22;40578;53.178;5.846;2022-11-20T15:48:23;2.10;1.00
54680;DHT22;40578;53.178;5.846;2022-11-20T15:51:03;2.20;1.00
54680;DHT22;40578;53.178;5.846;2022-11-20T15:53:31;2.30;99.90
54680;DHT22;40578;53.178;5.846;2022-11-20T15:55:57;2.20;99.90
54680;DHT22;40578;53.178;5.846;2022-11-20T15:58:22;2.20;99.90
54680;DHT22;40578;53.178;5.846;2022-11-20T16:00:50;2.20;99.90
54680;DHT22;40578;53.178;5.846;2022-11-20T16:03:16;2.20;99.90
54680;DHT22;40578;53.178;5.846;2022-11-20T16:05:42;2.20;99.90
54680;DHT22;40578;53.178;5.846;2022-11-20T16:08:12;2.20;99.90
54680;DHT22;40578;53.178;5.846;2022-11-20T16:10:38;2.20;99.90
54680;DHT22;40578;53.178;5.846;2022-11-20T16:13:04;2.20;99.90
54680;DHT22;40578;53.178;5.846;2022-11-20T16:15:57;2.20;99.90
54680;DHT22;40578;53.178;5.846;2022-11-20T16:18:23;2.20;99.90
54680;DHT22;40578;53.178;5.846;2022-11-20T16:20:51;1.90;99.90
54680;DHT22;40578;53.178;5.846;2022-11-20T16:23:18;2.30;99.90
54680;DHT22;40578;53.178;5.846;2022-11-20T16:25:44;2.30;99.90
54680;DHT22;40578;53.178;5.846;2022-11-20T16:28:10;2.30;1.00
54680;DHT22;40578;53.178;5.846;2022-11-20T16:30:36;2.30;99.90
54680;DHT22;40578;53.178;5.846;2022-11-20T16:33:03;2.30;99.90
54680;DHT22;40578;53.178;5.846;2022-11-20T16:35:30;2.20;99.90
54680;DHT22;40578;53.178;5.846;2022-11-20T16:37:56;2.20;99.90
54680;DHT22;40578;53.178;5.846;2022-11-20T16:40:23;2.20;1.00
54680;DHT22;40578;53.178;5.846;2022-11-20T16:42:50;2.20;1.00
54680;DHT22;40578;53.178;5.846;2022-11-20T16:45:15;2.20;1.00
54680;DHT22;40578;53.178;5.846;2022-11-20T16:47:41;2.10;1.00
54680;DHT22;40578;53.178;5.846;2022-11-20T16:50:07;2.10;1.00
54680;DHT22;40578;53.178;5.846;2022-11-20T16:52:33;2.10;1.00
54680;DHT22;40578;53.178;5.846;2022-11-20T16:54:59;2.10;1.00
54680;DHT22;40578;53.178;5.846;2022-11-20T16:57:27;2.40;6.10
54680;DHT22;40578;53.178;5.846;2022-11-20T16:59:54;2.10;16.30
54680;DHT22;40578;53.178;5.846;2022-11-20T17:02:20;2.10;22.90
54680;DHT22;40578;53.178;5.846;2022-11-20T17:04:45;2.10;15.70
54680;DHT22;40578;53.178;5.846;2022-11-20T17:07:11;2.10;41.60
54680;DHT22;40578;53.178;5.846;2022-11-20T17:09:37;2.10;52.00
54680;DHT22;40578;53.178;5.846;2022-11-20T17:12:03;2.10;82.20
54680;DHT22;40578;53.178;5.846;2022-11-20T17:14:28;2.00;92.90
54680;DHT22;40578;53.178;5.846;2022-11-20T17:16:54;2.00;99.90
54680;DHT22;40578;53.178;5.846;2022-11-20T17:19:20;2.00;99.90
54680;DHT22;40578;53.178;5.846;2022-11-20T17:21:45;2.40;99.90